aviador You're here:

KUGN Decoded Metar

CHICAGO in IL, USA
Report Time2017-07-24 15:55:00
UTC Time2017-07-24 16:42:01
Flight Rules mvfr MVFR
Wind360° at 10 Gusting to 17 kt
W.Decomp.*RWY 32: 7.3 kt HW 6.8 kt RCW
RWY 05: 6.8 kt HW 7.3 kt LCW
Visibility9999 m
Phenomena:N/A
Clouds:Overcast 028 Hf
Expected CloudBase > 2,400 ft AGL from Temp-Dew spread
Ceiling2,800 ft
Temp20°C (ISA +6)
Dew Point14°C (69% RH)
AAT17.7°C
QNH1017 hPa
Density Alt1,562 ft
Elevation728 ft
Report Wrong Elevation
Raw Report
METAR KUGN 241555Z 36010G17KT 10SM OVC028 20/14 A3004 RMK AO2 SLP164
T02000144 $=

Extra information for KUGN:More info

Metar Taf Metar & Taf Last 4 Metars F.Rules Stats Wind Profile Meteogram Temp Stats Airport Information Weather charts Add Link Nearby VenuesMetar ALERT Operation Metar Decoded Social comments

AIRNAV info for KUGN